sensor_id;sensor_type;location;lat;lon;timestamp;temperature;humidity
1283;DHT22;634;48.810;9.148;2022-07-18T00:00:53;22.40;40.00
1283;DHT22;634;48.810;9.148;2022-07-18T00:03:22;22.50;40.90
1283;DHT22;634;48.810;9.148;2022-07-18T00:05:52;22.20;40.60
1283;DHT22;634;48.810;9.148;2022-07-18T00:08:24;21.90;40.60
1283;DHT22;634;48.810;9.148;2022-07-18T00:10:54;21.70;41.00
1283;DHT22;634;48.810;9.148;2022-07-18T00:13:23;21.70;40.60
1283;DHT22;634;48.810;9.148;2022-07-18T00:15:53;21.70;40.70
1283;DHT22;634;48.810;9.148;2022-07-18T00:18:22;21.50;40.70
1283;DHT22;634;48.810;9.148;2022-07-18T00:20:51;21.50;41.10
1283;DHT22;634;48.810;9.148;2022-07-18T00:23:24;21.40;40.80
1283;DHT22;634;48.810;9.148;2022-07-18T00:25:58;21.20;40.70
1283;DHT22;634;48.810;9.148;2022-07-18T00:28:27;21.20;41.00
1283;DHT22;634;48.810;9.148;2022-07-18T00:30:59;21.10;41.00
1283;DHT22;634;48.810;9.148;2022-07-18T00:33:28;21.40;40.70
1283;DHT22;634;48.810;9.148;2022-07-18T00:36:00;21.40;40.20
1283;DHT22;634;48.810;9.148;2022-07-18T00:38:32;21.40;40.50
1283;DHT22;634;48.810;9.148;2022-07-18T00:41:02;21.20;40.70
1283;DHT22;634;48.810;9.148;2022-07-18T00:43:31;21.20;41.10
1283;DHT22;634;48.810;9.148;2022-07-18T00:46:01;21.00;40.80
1283;DHT22;634;48.810;9.148;2022-07-18T00:48:30;21.10;40.90
1283;DHT22;634;48.810;9.148;2022-07-18T00:51:00;21.00;41.00
1283;DHT22;634;48.810;9.148;2022-07-18T00:53:32;21.00;40.30
1283;DHT22;634;48.810;9.148;2022-07-18T00:56:02;20.90;40.40
1283;DHT22;634;48.810;9.148;2022-07-18T00:58:33;20.80;40.70
1283;DHT22;634;48.810;9.148;2022-07-18T01:01:04;20.70;41.10
1283;DHT22;634;48.810;9.148;2022-07-18T01:03:46;20.70;40.80
1283;DHT22;634;48.810;9.148;2022-07-18T01:06:16;20.80;40.90
1283;DHT22;634;48.810;9.148;2022-07-18T01:08:48;20.70;40.40
1283;DHT22;634;48.810;9.148;2022-07-18T01:11:17;20.50;40.60
1283;DHT22;634;48.810;9.148;2022-07-18T01:13:47;20.40;40.70
1283;DHT22;634;48.810;9.148;2022-07-18T01:16:18;20.20;41.10
1283;DHT22;634;48.810;9.148;2022-07-18T01:18:49;20.20;41.00
1283;DHT22;634;48.810;9.148;2022-07-18T01:21:21;20.20;40.50
1283;DHT22;634;48.810;9.148;2022-07-18T01:23:50;20.30;40.50
1283;DHT22;634;48.810;9.148;2022-07-18T01:26:20;20.40;40.40
1283;DHT22;634;48.810;9.148;2022-07-18T01:28:52;20.50;40.10
1283;DHT22;634;48.810;9.148;2022-07-18T01:31:22;20.40;40.20
1283;DHT22;634;48.810;9.148;2022-07-18T01:33:54;20.40;40.40
1283;DHT22;634;48.810;9.148;2022-07-18T01:36:26;20.40;40.30
1283;DHT22;634;48.810;9.148;2022-07-18T01:38:55;20.60;40.60
1283;DHT22;634;48.810;9.148;2022-07-18T01:41:32;20.80;40.50
1283;DHT22;634;48.810;9.148;2022-07-18T01:44:02;21.00;40.90
1283;DHT22;634;48.810;9.148;2022-07-18T01:46:34;21.00;41.00
1283;DHT22;634;48.810;9.148;2022-07-18T01:49:03;20.90;41.10
1283;DHT22;634;48.810;9.148;2022-07-18T01:51:35;20.80;41.50
1283;DHT22;634;48.810;9.148;2022-07-18T01:54:05;20.90;41.40
1283;DHT22;634;48.810;9.148;2022-07-18T01:56:34;20.70;41.40
1283;DHT22;634;48.810;9.148;2022-07-18T01:59:04;20.70;41.50
1283;DHT22;634;48.810;9.148;2022-07-18T02:01:33;20.50;42.00
1283;DHT22;634;48.810;9.148;2022-07-18T02:04:03;20.40;41.80
1283;DHT22;634;48.810;9.148;2022-07-18T02:06:35;20.40;42.10
1283;DHT22;634;48.810;9.148;2022-07-18T02:09:05;20.50;41.80
1283;DHT22;634;48.810;9.148;2022-07-18T02:11:37;20.50;41.50
1283;DHT22;634;48.810;9.148;2022-07-18T02:14:07;20.50;41.80
1283;DHT22;634;48.810;9.148;2022-07-18T02:16:36;20.40;41.80
1283;DHT22;634;48.810;9.148;2022-07-18T02:19:08;20.20;42.10
1283;DHT22;634;48.810;9.148;2022-07-18T02:21:40;20.20;42.10
1283;DHT22;634;48.810;9.148;2022-07-18T02:24:09;20.00;42.20
1283;DHT22;634;48.810;9.148;2022-07-18T02:26:39;20.00;42.80
1283;DHT22;634;48.810;9.148;2022-07-18T02:29:08;20.10;42.50
1283;DHT22;634;48.810;9.148;2022-07-18T02:31:40;20.00;42.60
1283;DHT22;634;48.810;9.148;2022-07-18T02:34:12;20.20;42.60
1283;DHT22;634;48.810;9.148;2022-07-18T02:36:44;20.20;42.80
1283;DHT22;634;48.810;9.148;2022-07-18T02:39:17;20.10;42.70
1283;DHT22;634;48.810;9.148;2022-07-18T02:41:47;20.10;42.80
1283;DHT22;634;48.810;9.148;2022-07-18T02:44:17;20.10;43.10
1283;DHT22;634;48.810;9.148;2022-07-18T02:46:46;20.30;43.00
1283;DHT22;634;48.810;9.148;2022-07-18T02:49:16;20.20;42.80
1283;DHT22;634;48.810;9.148;2022-07-18T02:51:59;19.90;43.00
1283;DHT22;634;48.810;9.148;2022-07-18T02:54:30;19.90;43.40
1283;DHT22;634;48.810;9.148;2022-07-18T02:57:00;19.70;43.70
1283;DHT22;634;48.810;9.148;2022-07-18T02:59:33;19.70;44.10
1283;DHT22;634;48.810;9.148;2022-07-18T03:02:03;19.70;44.60
1283;DHT22;634;48.810;9.148;2022-07-18T03:04:34;19.80;44.30
1283;DHT22;634;48.810;9.148;2022-07-18T03:07:06;19.60;44.40
1283;DHT22;634;48.810;9.148;2022-07-18T03:09:36;19.60;44.70
1283;DHT22;634;48.810;9.148;2022-07-18T03:12:05;19.50;44.80
1283;DHT22;634;48.810;9.148;2022-07-18T03:14:35;19.60;45.20
1283;DHT22;634;48.810;9.148;2022-07-18T03:17:07;19.50;45.20
1283;DHT22;634;48.810;9.148;2022-07-18T03:19:36;19.40;45.30
1283;DHT22;634;48.810;9.148;2022-07-18T03:22:09;19.30;45.60
1283;DHT22;634;48.810;9.148;2022-07-18T03:24:38;19.40;45.80
1283;DHT22;634;48.810;9.148;2022-07-18T03:27:07;19.40;45.90
1283;DHT22;634;48.810;9.148;2022-07-18T03:29:39;19.30;46.00
1283;DHT22;634;48.810;9.148;2022-07-18T03:32:09;19.40;46.30
1283;DHT22;634;48.810;9.148;2022-07-18T03:34:38;19.40;46.10
1283;DHT22;634;48.810;9.148;2022-07-18T03:37:10;19.50;46.40
1283;DHT22;634;48.810;9.148;2022-07-18T03:39:40;19.70;46.30
1283;DHT22;634;48.810;9.148;2022-07-18T03:42:09;19.70;46.10
1283;DHT22;634;48.810;9.148;2022-07-18T03:44:39;19.80;46.20
1283;DHT22;634;48.810;9.148;2022-07-18T03:47:09;19.70;46.10
1283;DHT22;634;48.810;9.148;2022-07-18T03:49:41;19.40;46.50
1283;DHT22;634;48.810;9.148;2022-07-18T03:52:13;19.20;47.80
1283;DHT22;634;48.810;9.148;2022-07-18T03:54:43;19.30;47.70
1283;DHT22;634;48.810;9.148;2022-07-18T03:57:12;19.40;47.40
1283;DHT22;634;48.810;9.148;2022-07-18T03:59:42;19.50;48.00
1283;DHT22;634;48.810;9.148;2022-07-18T04:02:14;19.30;47.40
1283;DHT22;634;48.810;9.148;2022-07-18T04:04:43;19.20;48.20
1283;DHT22;634;48.810;9.148;2022-07-18T04:07:18;19.30;48.40
1283;DHT22;634;48.810;9.148;2022-07-18T04:09:47;19.30;48.50
1283;DHT22;634;48.810;9.148;2022-07-18T04:12:17;19.40;48.60
1283;DHT22;634;48.810;9.148;2022-07-18T04:14:46;19.30;48.50
1283;DHT22;634;48.810;9.148;2022-07-18T04:17:15;19.10;48.80
1283;DHT22;634;48.810;9.148;2022-07-18T04:19:48;19.20;49.20
1283;DHT22;634;48.810;9.148;2022-07-18T04:22:20;19.30;49.40
1283;DHT22;634;48.810;9.148;2022-07-18T04:24:49;19.50;49.10
1283;DHT22;634;48.810;9.148;2022-07-18T04:27:21;19.30;49.20
1283;DHT22;634;48.810;9.148;2022-07-18T04:29:50;19.30;49.30
1283;DHT22;634;48.810;9.148;2022-07-18T04:32:20;19.20;49.60
1283;DHT22;634;48.810;9.148;2022-07-18T04:34:49;19.20;50.10
1283;DHT22;634;48.810;9.148;2022-07-18T04:37:23;19.20;50.40
1283;DHT22;634;48.810;9.148;2022-07-18T04:39:53;19.30;50.80
1283;DHT22;634;48.810;9.148;2022-07-18T04:42:22;19.20;51.20
1283;DHT22;634;48.810;9.148;2022-07-18T04:44:52;19.00;51.80
1283;DHT22;634;48.810;9.148;2022-07-18T04:47:22;18.90;52.50
1283;DHT22;634;48.810;9.148;2022-07-18T04:49:51;18.90;53.10
1283;DHT22;634;48.810;9.148;2022-07-18T04:52:24;19.00;53.10
1283;DHT22;634;48.810;9.148;2022-07-18T04:54:53;19.20;53.00
1283;DHT22;634;48.810;9.148;2022-07-18T04:57:23;19.20;53.20
1283;DHT22;634;48.810;9.148;2022-07-18T04:59:52;19.30;53.20
1283;DHT22;634;48.810;9.148;2022-07-18T05:02:22;19.30;53.40
1283;DHT22;634;48.810;9.148;2022-07-18T05:04:51;19.40;53.50
1283;DHT22;634;48.810;9.148;2022-07-18T05:07:23;19.50;53.40
1283;DHT22;634;48.810;9.148;2022-07-18T05:09:55;19.60;52.40
1283;DHT22;634;48.810;9.148;2022-07-18T05:12:26;19.60;52.20
1283;DHT22;634;48.810;9.148;2022-07-18T05:14:57;19.60;52.70
1283;DHT22;634;48.810;9.148;2022-07-18T05:17:27;19.80;52.40
1283;DHT22;634;48.810;9.148;2022-07-18T05:19:56;19.90;51.30
1283;DHT22;634;48.810;9.148;2022-07-18T05:22:28;20.10;50.60
1283;DHT22;634;48.810;9.148;2022-07-18T05:24:58;20.30;50.30
1283;DHT22;634;48.810;9.148;2022-07-18T05:27:28;20.50;49.90
1283;DHT22;634;48.810;9.148;2022-07-18T05:29:57;20.50;49.70
1283;DHT22;634;48.810;9.148;2022-07-18T05:32:28;20.50;49.50
1283;DHT22;634;48.810;9.148;2022-07-18T05:34:57;20.70;49.50
1283;DHT22;634;48.810;9.148;2022-07-18T05:37:30;20.70;49.80
1283;DHT22;634;48.810;9.148;2022-07-18T05:40:01;20.80;49.70
1283;DHT22;634;48.810;9.148;2022-07-18T05:42:32;21.00;49.70
1283;DHT22;634;48.810;9.148;2022-07-18T05:45:02;21.10;49.20
1283;DHT22;634;48.810;9.148;2022-07-18T05:47:31;21.30;49.20
1283;DHT22;634;48.810;9.148;2022-07-18T05:50:04;21.30;48.90
1283;DHT22;634;48.810;9.148;2022-07-18T05:52:36;21.40;48.80
1283;DHT22;634;48.810;9.148;2022-07-18T05:55:07;21.50;48.60
1283;DHT22;634;48.810;9.148;2022-07-18T05:57:36;21.60;48.70
1283;DHT22;634;48.810;9.148;2022-07-18T06:00:08;21.70;48.70
1283;DHT22;634;48.810;9.148;2022-07-18T06:02:38;21.70;49.10
1283;DHT22;634;48.810;9.148;2022-07-18T06:05:09;21.80;49.30
1283;DHT22;634;48.810;9.148;2022-07-18T06:07:41;21.80;49.10
1283;DHT22;634;48.810;9.148;2022-07-18T06:10:11;21.90;49.30
1283;DHT22;634;48.810;9.148;2022-07-18T06:12:41;21.90;49.50
1283;DHT22;634;48.810;9.148;2022-07-18T06:15:11;22.00;49.30
1283;DHT22;634;48.810;9.148;2022-07-18T06:17:41;22.10;49.50
1283;DHT22;634;48.810;9.148;2022-07-18T06:20:13;22.20;49.20
1283;DHT22;634;48.810;9.148;2022-07-18T06:22:45;22.30;49.00
1283;DHT22;634;48.810;9.148;2022-07-18T06:25:15;22.40;48.50
1283;DHT22;634;48.810;9.148;2022-07-18T06:27:44;22.40;48.50
1283;DHT22;634;48.810;9.148;2022-07-18T06:30:14;22.50;49.20
1283;DHT22;634;48.810;9.148;2022-07-18T06:32:45;22.60;49.10
1283;DHT22;634;48.810;9.148;2022-07-18T06:35:15;22.70;49.00
1283;DHT22;634;48.810;9.148;2022-07-18T06:37:47;22.90;48.60
1283;DHT22;634;48.810;9.148;2022-07-18T06:40:17;23.20;48.20
1283;DHT22;634;48.810;9.148;2022-07-18T06:42:46;23.30;48.40
1283;DHT22;634;48.810;9.148;2022-07-18T06:45:15;23.30;49.00
1283;DHT22;634;48.810;9.148;2022-07-18T06:47:45;23.40;49.20
1283;DHT22;634;48.810;9.148;2022-07-18T06:50:15;23.50;49.40
1283;DHT22;634;48.810;9.148;2022-07-18T06:52:48;23.70;49.40
1283;DHT22;634;48.810;9.148;2022-07-18T06:55:17;23.80;49.50
1283;DHT22;634;48.810;9.148;2022-07-18T06:57:47;24.00;49.40
1283;DHT22;634;48.810;9.148;2022-07-18T07:00:17;24.00;49.20
1283;DHT22;634;48.810;9.148;2022-07-18T07:02:47;24.10;49.10
1283;DHT22;634;48.810;9.148;2022-07-18T07:05:18;24.30;48.90
1283;DHT22;634;48.810;9.148;2022-07-18T07:07:51;24.40;49.00
1283;DHT22;634;48.810;9.148;2022-07-18T07:10:20;24.50;49.30
1283;DHT22;634;48.810;9.148;2022-07-18T07:12:51;24.60;51.60
1283;DHT22;634;48.810;9.148;2022-07-18T07:15:22;24.80;51.80
1283;DHT22;634;48.810;9.148;2022-07-18T07:17:53;24.90;50.50
1283;DHT22;634;48.810;9.148;2022-07-18T07:20:22;25.10;50.10
1283;DHT22;634;48.810;9.148;2022-07-18T07:22:56;25.20;50.10
1283;DHT22;634;48.810;9.148;2022-07-18T07:25:28;25.40;50.10
1283;DHT22;634;48.810;9.148;2022-07-18T07:27:57;25.50;50.00
1283;DHT22;634;48.810;9.148;2022-07-18T07:30:27;25.60;49.70
1283;DHT22;634;48.810;9.148;2022-07-18T07:32:56;25.70;49.20
1283;DHT22;634;48.810;9.148;2022-07-18T07:35:28;25.80;48.90
1283;DHT22;634;48.810;9.148;2022-07-18T07:38:00;25.90;48.50
1283;DHT22;634;48.810;9.148;2022-07-18T07:40:30;26.00;47.60
1283;DHT22;634;48.810;9.148;2022-07-18T07:43:07;26.20;47.10
1283;DHT22;634;48.810;9.148;2022-07-18T07:45:38;26.40;46.50
1283;DHT22;634;48.810;9.148;2022-07-18T07:48:08;26.40;46.30
1283;DHT22;634;48.810;9.148;2022-07-18T07:50:40;26.60;46.20
1283;DHT22;634;48.810;9.148;2022-07-18T07:53:14;26.70;45.50
1283;DHT22;634;48.810;9.148;2022-07-18T07:55:44;26.70;45.50
1283;DHT22;634;48.810;9.148;2022-07-18T07:58:15;26.90;45.30
1283;DHT22;634;48.810;9.148;2022-07-18T08:00:45;27.10;45.30
1283;DHT22;634;48.810;9.148;2022-07-18T08:03:14;27.20;44.60
1283;DHT22;634;48.810;9.148;2022-07-18T08:05:46;27.40;43.90
1283;DHT22;634;48.810;9.148;2022-07-18T08:08:19;27.50;43.60
1283;DHT22;634;48.810;9.148;2022-07-18T08:10:48;27.60;42.60
1283;DHT22;634;48.810;9.148;2022-07-18T08:13:19;27.70;43.30
1283;DHT22;634;48.810;9.148;2022-07-18T08:15:49;27.90;43.00
1283;DHT22;634;48.810;9.148;2022-07-18T08:18:18;28.10;42.40
1283;DHT22;634;48.810;9.148;2022-07-18T08:20:48;28.40;42.40
1283;DHT22;634;48.810;9.148;2022-07-18T08:23:20;28.50;42.00
1283;DHT22;634;48.810;9.148;2022-07-18T08:25:50;28.70;41.30
1283;DHT22;634;48.810;9.148;2022-07-18T08:28:22;28.80;40.30
1283;DHT22;634;48.810;9.148;2022-07-18T08:30:52;28.80;40.70
1283;DHT22;634;48.810;9.148;2022-07-18T08:33:21;28.90;40.90
1283;DHT22;634;48.810;9.148;2022-07-18T08:35:50;29.10;41.60
1283;DHT22;634;48.810;9.148;2022-07-18T08:38:25;29.30;40.40
1283;DHT22;634;48.810;9.148;2022-07-18T08:40:54;29.30;39.90
1283;DHT22;634;48.810;9.148;2022-07-18T08:43:25;29.40;40.20
1283;DHT22;634;48.810;9.148;2022-07-18T08:45:59;29.60;39.30
1283;DHT22;634;48.810;9.148;2022-07-18T08:48:30;29.70;38.50
1283;DHT22;634;48.810;9.148;2022-07-18T08:51:01;29.80;37.80
1283;DHT22;634;48.810;9.148;2022-07-18T08:53:35;29.80;38.50
1283;DHT22;634;48.810;9.148;2022-07-18T08:56:05;30.10;38.20
1283;DHT22;634;48.810;9.148;2022-07-18T08:58:35;30.30;37.80
1283;DHT22;634;48.810;9.148;2022-07-18T09:01:10;30.40;36.70
1283;DHT22;634;48.810;9.148;2022-07-18T09:03:41;30.50;37.30
1283;DHT22;634;48.810;9.148;2022-07-18T09:06:13;30.60;37.00
1283;DHT22;634;48.810;9.148;2022-07-18T09:09:01;30.80;36.30
1283;DHT22;634;48.810;9.148;2022-07-18T09:11:33;31.10;36.40
1283;DHT22;634;48.810;9.148;2022-07-18T09:14:02;31.20;35.70
1283;DHT22;634;48.810;9.148;2022-07-18T09:16:32;31.40;34.90
1283;DHT22;634;48.810;9.148;2022-07-18T09:19:05;31.50;34.40
1283;DHT22;634;48.810;9.148;2022-07-18T09:21:36;31.70;33.80
1283;DHT22;634;48.810;9.148;2022-07-18T09:24:09;31.90;33.00
1283;DHT22;634;48.810;9.148;2022-07-18T09:26:40;32.00;31.90
1283;DHT22;634;48.810;9.148;2022-07-18T09:29:14;32.20;31.50
1283;DHT22;634;48.810;9.148;2022-07-18T09:31:49;32.50;31.00
1283;DHT22;634;48.810;9.148;2022-07-18T09:34:32;32.60;30.70
1283;DHT22;634;48.810;9.148;2022-07-18T09:37:04;32.50;30.10
1283;DHT22;634;48.810;9.148;2022-07-18T09:39:41;32.70;30.40
1283;DHT22;634;48.810;9.148;2022-07-18T09:42:15;33.00;30.00
1283;DHT22;634;48.810;9.148;2022-07-18T09:44:57;33.30;29.80
1283;DHT22;634;48.810;9.148;2022-07-18T09:47:27;33.50;29.60
1283;DHT22;634;48.810;9.148;2022-07-18T09:50:03;33.20;29.00
1283;DHT22;634;48.810;9.148;2022-07-18T09:52:32;33.50;29.40
1283;DHT22;634;48.810;9.148;2022-07-18T09:55:09;33.80;28.70
1283;DHT22;634;48.810;9.148;2022-07-18T09:57:42;34.10;28.30
1283;DHT22;634;48.810;9.148;2022-07-18T10:00:12;34.30;28.10
1283;DHT22;634;48.810;9.148;2022-07-18T10:02:42;34.30;27.90
1283;DHT22;634;48.810;9.148;2022-07-18T10:05:11;34.50;27.70
1283;DHT22;634;48.810;9.148;2022-07-18T10:07:41;34.70;27.50
1283;DHT22;634;48.810;9.148;2022-07-18T10:10:16;34.90;27.20
1283;DHT22;634;48.810;9.148;2022-07-18T10:12:46;35.00;28.40
1283;DHT22;634;48.810;9.148;2022-07-18T10:15:21;34.90;27.60
1283;DHT22;634;48.810;9.148;2022-07-18T10:17:51;34.90;27.10
1283;DHT22;634;48.810;9.148;2022-07-18T10:20:30;35.60;26.70
1283;DHT22;634;48.810;9.148;2022-07-18T10:23:12;36.10;25.90
1283;DHT22;634;48.810;9.148;2022-07-18T10:26:12;36.70;25.10
1283;DHT22;634;48.810;9.148;2022-07-18T10:32:01;37.00;24.80
1283;DHT22;634;48.810;9.148;2022-07-18T10:34:35;37.20;24.90
1283;DHT22;634;48.810;9.148;2022-07-18T10:37:10;36.60;23.90
1283;DHT22;634;48.810;9.148;2022-07-18T10:39:41;36.30;25.00
1283;DHT22;634;48.810;9.148;2022-07-18T10:42:22;36.50;25.20
1283;DHT22;634;48.810;9.148;2022-07-18T10:44:54;36.60;26.40
1283;DHT22;634;48.810;9.148;2022-07-18T10:47:28;36.60;24.80
1283;DHT22;634;48.810;9.148;2022-07-18T10:50:16;36.70;26.10
1283;DHT22;634;48.810;9.148;2022-07-18T10:53:01;36.70;24.50
1283;DHT22;634;48.810;9.148;2022-07-18T10:55:31;36.60;23.90
1283;DHT22;634;48.810;9.148;2022-07-18T10:58:19;36.10;24.40
1283;DHT22;634;48.810;9.148;2022-07-18T11:00:50;36.00;25.00
1283;DHT22;634;48.810;9.148;2022-07-18T11:03:27;35.80;24.30
1283;DHT22;634;48.810;9.148;2022-07-18T11:05:57;36.00;24.80
1283;DHT22;634;48.810;9.148;2022-07-18T11:08:30;35.70;24.60
1283;DHT22;634;48.810;9.148;2022-07-18T11:11:04;35.70;24.90
1283;DHT22;634;48.810;9.148;2022-07-18T11:13:39;36.10;24.90
1283;DHT22;634;48.810;9.148;2022-07-18T11:16:11;36.30;23.80
1283;DHT22;634;48.810;9.148;2022-07-18T11:19:16;36.40;23.70
1283;DHT22;634;48.810;9.148;2022-07-18T11:21:59;36.40;23.60
1283;DHT22;634;48.810;9.148;2022-07-18T11:24:31;36.60;24.10
1283;DHT22;634;48.810;9.148;2022-07-18T11:27:04;36.70;23.50
1283;DHT22;634;48.810;9.148;2022-07-18T11:29:42;36.90;24.00
1283;DHT22;634;48.810;9.148;2022-07-18T11:32:12;36.90;23.30
1283;DHT22;634;48.810;9.148;2022-07-18T11:34:49;36.80;22.90
1283;DHT22;634;48.810;9.148;2022-07-18T11:37:19;36.40;23.70
1283;DHT22;634;48.810;9.148;2022-07-18T11:39:49;36.70;24.10
1283;DHT22;634;48.810;9.148;2022-07-18T11:42:35;36.60;23.20
1283;DHT22;634;48.810;9.148;2022-07-18T11:45:09;36.30;24.10
1283;DHT22;634;48.810;9.148;2022-07-18T11:47:47;36.30;23.70
1283;DHT22;634;48.810;9.148;2022-07-18T11:50:18;36.30;24.00
1283;DHT22;634;48.810;9.148;2022-07-18T11:52:58;36.60;23.90
1283;DHT22;634;48.810;9.148;2022-07-18T11:55:37;36.60;23.60
1283;DHT22;634;48.810;9.148;2022-07-18T11:58:10;37.00;22.80
1283;DHT22;634;48.810;9.148;2022-07-18T12:00:43;37.20;23.10
1283;DHT22;634;48.810;9.148;2022-07-18T12:03:19;37.10;22.40
1283;DHT22;634;48.810;9.148;2022-07-18T12:05:53;37.00;22.80
1283;DHT22;634;48.810;9.148;2022-07-18T12:08:31;37.20;23.60
1283;DHT22;634;48.810;9.148;2022-07-18T12:11:06;37.70;23.20
1283;DHT22;634;48.810;9.148;2022-07-18T12:13:50;37.50;22.00
1283;DHT22;634;48.810;9.148;2022-07-18T12:16:31;36.80;22.60
1283;DHT22;634;48.810;9.148;2022-07-18T12:19:06;36.50;23.00
1283;DHT22;634;48.810;9.148;2022-07-18T12:21:44;36.80;23.40
1283;DHT22;634;48.810;9.148;2022-07-18T12:24:18;36.80;22.20
1283;DHT22;634;48.810;9.148;2022-07-18T12:26:48;36.70;23.00
1283;DHT22;634;48.810;9.148;2022-07-18T12:29:17;36.60;23.20
1283;DHT22;634;48.810;9.148;2022-07-18T12:31:52;37.00;23.80
1283;DHT22;634;48.810;9.148;2022-07-18T12:34:21;37.40;23.00
1283;DHT22;634;48.810;9.148;2022-07-18T12:36:54;37.40;22.70
1283;DHT22;634;48.810;9.148;2022-07-18T12:39:28;37.00;23.30
1283;DHT22;634;48.810;9.148;2022-07-18T12:42:00;36.90;23.60
1283;DHT22;634;48.810;9.148;2022-07-18T12:44:30;37.20;23.60
1283;DHT22;634;48.810;9.148;2022-07-18T12:47:02;37.20;23.30
1283;DHT22;634;48.810;9.148;2022-07-18T12:49:31;37.50;23.80
1283;DHT22;634;48.810;9.148;2022-07-18T12:52:01;37.70;23.80
1283;DHT22;634;48.810;9.148;2022-07-18T12:54:30;37.40;22.90
1283;DHT22;634;48.810;9.148;2022-07-18T12:57:00;36.80;23.50
1283;DHT22;634;48.810;9.148;2022-07-18T12:59:29;36.50;23.70
1283;DHT22;634;48.810;9.148;2022-07-18T13:01:58;36.20;23.70
1283;DHT22;634;48.810;9.148;2022-07-18T13:04:34;35.90;24.10
1283;DHT22;634;48.810;9.148;2022-07-18T13:07:08;35.30;24.50
1283;DHT22;634;48.810;9.148;2022-07-18T13:09:38;35.10;24.80
1283;DHT22;634;48.810;9.148;2022-07-18T13:12:09;34.80;24.80
1283;DHT22;634;48.810;9.148;2022-07-18T13:14:39;34.70;25.10
1283;DHT22;634;48.810;9.148;2022-07-18T13:17:08;34.70;25.20
1283;DHT22;634;48.810;9.148;2022-07-18T13:19:43;34.70;25.10
1283;DHT22;634;48.810;9.148;2022-07-18T13:22:13;34.70;25.50
1283;DHT22;634;48.810;9.148;2022-07-18T13:24:43;34.70;25.30
1283;DHT22;634;48.810;9.148;2022-07-18T13:27:12;34.70;25.70
1283;DHT22;634;48.810;9.148;2022-07-18T13:29:44;34.60;25.20
1283;DHT22;634;48.810;9.148;2022-07-18T13:32:13;34.60;25.80
1283;DHT22;634;48.810;9.148;2022-07-18T13:34:48;34.50;26.20
1283;DHT22;634;48.810;9.148;2022-07-18T13:37:20;34.50;25.50
1283;DHT22;634;48.810;9.148;2022-07-18T13:39:50;34.30;25.50
1283;DHT22;634;48.810;9.148;2022-07-18T13:42:21;34.30;25.80
1283;DHT22;634;48.810;9.148;2022-07-18T13:44:51;34.20;25.80
1283;DHT22;634;48.810;9.148;2022-07-18T13:47:20;34.20;25.80
1283;DHT22;634;48.810;9.148;2022-07-18T13:49:54;34.20;25.80
1283;DHT22;634;48.810;9.148;2022-07-18T13:52:24;34.20;26.30
1283;DHT22;634;48.810;9.148;2022-07-18T13:54:56;34.20;25.90
1283;DHT22;634;48.810;9.148;2022-07-18T13:57:25;34.10;25.80
1283;DHT22;634;48.810;9.148;2022-07-18T13:59:55;34.10;26.20
1283;DHT22;634;48.810;9.148;2022-07-18T14:02:24;34.10;26.10
1283;DHT22;634;48.810;9.148;2022-07-18T14:04:58;34.10;26.10
1283;DHT22;634;48.810;9.148;2022-07-18T14:07:28;33.80;25.70
1283;DHT22;634;48.810;9.148;2022-07-18T14:09:57;33.60;26.20
1283;DHT22;634;48.810;9.148;2022-07-18T14:12:27;33.60;26.10
1283;DHT22;634;48.810;9.148;2022-07-18T14:14:56;33.70;26.60
1283;DHT22;634;48.810;9.148;2022-07-18T14:17:30;33.70;26.40
1283;DHT22;634;48.810;9.148;2022-07-18T14:20:06;33.70;25.90
1283;DHT22;634;48.810;9.148;2022-07-18T14:22:37;33.60;26.20
1283;DHT22;634;48.810;9.148;2022-07-18T14:25:09;33.60;26.40
1283;DHT22;634;48.810;9.148;2022-07-18T14:27:42;33.60;26.80
1283;DHT22;634;48.810;9.148;2022-07-18T14:30:14;33.70;26.50
1283;DHT22;634;48.810;9.148;2022-07-18T14:32:43;33.70;26.20
1283;DHT22;634;48.810;9.148;2022-07-18T14:35:16;33.60;25.40
1283;DHT22;634;48.810;9.148;2022-07-18T14:37:45;33.50;25.70
1283;DHT22;634;48.810;9.148;2022-07-18T14:40:17;33.40;25.90
1283;DHT22;634;48.810;9.148;2022-07-18T14:42:46;33.40;26.30
1283;DHT22;634;48.810;9.148;2022-07-18T14:45:17;33.40;26.70
1283;DHT22;634;48.810;9.148;2022-07-18T14:47:47;33.40;26.80
1283;DHT22;634;48.810;9.148;2022-07-18T14:50:18;33.30;26.80
1283;DHT22;634;48.810;9.148;2022-07-18T14:52:48;33.30;27.10
1283;DHT22;634;48.810;9.148;2022-07-18T14:55:20;33.20;26.70
1283;DHT22;634;48.810;9.148;2022-07-18T14:57:49;33.30;27.30
1283;DHT22;634;48.810;9.148;2022-07-18T15:00:19;33.20;26.80
1283;DHT22;634;48.810;9.148;2022-07-18T15:02:48;33.20;27.00
1283;DHT22;634;48.810;9.148;2022-07-18T15:05:21;33.20;27.30
1283;DHT22;634;48.810;9.148;2022-07-18T15:07:51;33.30;27.40
1283;DHT22;634;48.810;9.148;2022-07-18T15:10:23;33.30;27.50
1283;DHT22;634;48.810;9.148;2022-07-18T15:12:52;33.30;27.60
1283;DHT22;634;48.810;9.148;2022-07-18T15:15:21;33.30;27.40
1283;DHT22;634;48.810;9.148;2022-07-18T15:17:52;33.20;27.40
1283;DHT22;634;48.810;9.148;2022-07-18T15:20:26;33.10;27.30
1283;DHT22;634;48.810;9.148;2022-07-18T15:22:56;33.10;27.30
1283;DHT22;634;48.810;9.148;2022-07-18T15:25:25;33.20;27.30
1283;DHT22;634;48.810;9.148;2022-07-18T15:27:55;33.10;27.30
1283;DHT22;634;48.810;9.148;2022-07-18T15:30:24;33.10;27.70
1283;DHT22;634;48.810;9.148;2022-07-18T15:32:56;33.10;27.40
1283;DHT22;634;48.810;9.148;2022-07-18T15:35:28;33.10;27.50
1283;DHT22;634;48.810;9.148;2022-07-18T15:37:57;33.10;27.30
1283;DHT22;634;48.810;9.148;2022-07-18T15:40:26;33.10;27.10
1283;DHT22;634;48.810;9.148;2022-07-18T15:42:56;33.10;27.30
1283;DHT22;634;48.810;9.148;2022-07-18T15:45:26;33.10;27.50
1283;DHT22;634;48.810;9.148;2022-07-18T15:47:55;33.10;27.40
1283;DHT22;634;48.810;9.148;2022-07-18T15:50:27;33.10;27.40
1283;DHT22;634;48.810;9.148;2022-07-18T15:53:02;33.00;27.30
1283;DHT22;634;48.810;9.148;2022-07-18T15:55:31;33.00;27.90
1283;DHT22;634;48.810;9.148;2022-07-18T15:58:01;33.00;27.70
1283;DHT22;634;48.810;9.148;2022-07-18T16:00:30;33.00;27.40
1283;DHT22;634;48.810;9.148;2022-07-18T16:03:03;33.00;27.20
1283;DHT22;634;48.810;9.148;2022-07-18T16:05:37;33.00;27.40
1283;DHT22;634;48.810;9.148;2022-07-18T16:08:10;33.00;27.40
1283;DHT22;634;48.810;9.148;2022-07-18T16:10:42;33.00;27.40
1283;DHT22;634;48.810;9.148;2022-07-18T16:13:12;32.90;27.20
1283;DHT22;634;48.810;9.148;2022-07-18T16:15:41;32.90;27.20
1283;DHT22;634;48.810;9.148;2022-07-18T16:18:11;32.80;27.10
1283;DHT22;634;48.810;9.148;2022-07-18T16:20:43;32.80;27.30
1283;DHT22;634;48.810;9.148;2022-07-18T16:23:13;32.80;27.10
1283;DHT22;634;48.810;9.148;2022-07-18T16:25:43;32.80;27.50
1283;DHT22;634;48.810;9.148;2022-07-18T16:28:12;32.80;27.10
1283;DHT22;634;48.810;9.148;2022-07-18T16:30:44;32.80;27.40
1283;DHT22;634;48.810;9.148;2022-07-18T16:33:14;32.80;27.20
1283;DHT22;634;48.810;9.148;2022-07-18T16:35:46;32.80;26.70
1283;DHT22;634;48.810;9.148;2022-07-18T16:38:16;32.70;27.60
1283;DHT22;634;48.810;9.148;2022-07-18T16:40:46;32.70;27.20
1283;DHT22;634;48.810;9.148;2022-07-18T16:43:16;32.70;27.40
1283;DHT22;634;48.810;9.148;2022-07-18T16:45:47;32.70;27.50
1283;DHT22;634;48.810;9.148;2022-07-18T16:48:17;32.70;27.40